sensor_id;sensor_type;location;lat;lon;timestamp;pressure;altitude;pressure_sealevel;temperature;humidity
81990;BME280;71485;51.638;-0.182;2023-08-08T00:01:20;100664.45;;;27.25;27.14
81990;BME280;71485;51.638;-0.182;2023-08-08T00:03:45;100662.20;;;27.24;27.13
81990;BME280;71485;51.638;-0.182;2023-08-08T00:06:11;100663.75;;;27.47;27.10
81990;BME280;71485;51.638;-0.182;2023-08-08T00:08:36;100662.74;;;27.23;27.09
81990;BME280;71485;51.638;-0.182;2023-08-08T00:11:02;100659.72;;;26.97;27.10
81990;BME280;71485;51.638;-0.182;2023-08-08T00:13:29;100660.73;;;27.21;27.12
81990;BME280;71485;51.638;-0.182;2023-08-08T00:15:53;100661.31;;;26.94;27.14
81990;BME280;71485;51.638;-0.182;2023-08-08T00:18:19;100659.59;;;27.18;27.16
81990;BME280;71485;51.638;-0.182;2023-08-08T00:20:45;100658.86;;;27.17;27.16
81990;BME280;71485;51.638;-0.182;2023-08-08T00:23:10;100654.22;;;27.17;27.15
81990;BME280;71485;51.638;-0.182;2023-08-08T00:25:37;100648.52;;;27.15;27.16
81990;BME280;71485;51.638;-0.182;2023-08-08T00:28:01;100647.02;;;27.14;27.17
81990;BME280;71485;51.638;-0.182;2023-08-08T00:30:27;100641.95;;;27.12;27.21
81990;BME280;71485;51.638;-0.182;2023-08-08T00:32:52;100641.09;;;27.11;27.24
81990;BME280;71485;51.638;-0.182;2023-08-08T00:35:18;100637.33;;;27.11;27.24
81990;BME280;71485;51.638;-0.182;2023-08-08T00:37:43;100632.27;;;27.09;27.28
81990;BME280;71485;51.638;-0.182;2023-08-08T00:40:10;100625.59;;;27.56;27.27
81990;BME280;71485;51.638;-0.182;2023-08-08T00:42:34;100623.68;;;27.07;27.26
81990;BME280;71485;51.638;-0.182;2023-08-08T00:45:00;100621.44;;;27.05;27.25
81990;BME280;71485;51.638;-0.182;2023-08-08T00:47:25;100621.08;;;27.29;27.26
81990;BME280;71485;51.638;-0.182;2023-08-08T00:49:55;100620.96;;;27.04;27.25
81990;BME280;71485;51.638;-0.182;2023-08-08T00:52:17;100619.57;;;27.03;27.28
81990;BME280;71485;51.638;-0.182;2023-08-08T00:54:42;100617.43;;;27.01;27.27
81990;BME280;71485;51.638;-0.182;2023-08-08T00:57:08;100621.45;;;27.00;27.28
81990;BME280;71485;51.638;-0.182;2023-08-08T00:59:34;100615.81;;;27.00;27.27
81990;BME280;71485;51.638;-0.182;2023-08-08T01:01:59;100613.74;;;27.00;27.27
81990;BME280;71485;51.638;-0.182;2023-08-08T01:04:26;100620.80;;;26.99;27.28
81990;BME280;71485;51.638;-0.182;2023-08-08T01:06:55;100618.69;;;26.97;27.29
81990;BME280;71485;51.638;-0.182;2023-08-08T01:09:21;100611.44;;;26.98;27.30
81990;BME280;71485;51.638;-0.182;2023-08-08T01:11:41;100601.59;;;26.98;27.31
81990;BME280;71485;51.638;-0.182;2023-08-08T01:14:08;100598.18;;;26.95;27.32
81990;BME280;71485;51.638;-0.182;2023-08-08T01:16:33;100597.44;;;26.95;27.34
81990;BME280;71485;51.638;-0.182;2023-08-08T01:18:59;100598.46;;;26.93;27.36
81990;BME280;71485;51.638;-0.182;2023-08-08T01:21:25;100592.94;;;26.91;27.36
81990;BME280;71485;51.638;-0.182;2023-08-08T01:23:53;100589.78;;;27.14;27.37
81990;BME280;71485;51.638;-0.182;2023-08-08T01:26:16;100586.59;;;27.14;27.39
81990;BME280;71485;51.638;-0.182;2023-08-08T01:28:42;100591.26;;;27.37;27.38
81990;BME280;71485;51.638;-0.182;2023-08-08T01:31:06;100593.56;;;26.89;27.36
81990;BME280;71485;51.638;-0.182;2023-08-08T01:33:31;100592.89;;;26.88;27.36
81990;BME280;71485;51.638;-0.182;2023-08-08T01:36:00;100592.24;;;26.87;27.37
81990;BME280;71485;51.638;-0.182;2023-08-08T01:38:30;100595.32;;;27.09;27.37
81990;BME280;71485;51.638;-0.182;2023-08-08T01:40:48;100594.83;;;27.32;27.40
81990;BME280;71485;51.638;-0.182;2023-08-08T01:43:15;100591.61;;;26.83;27.40
81990;BME280;71485;51.638;-0.182;2023-08-08T01:45:39;100588.51;;;26.83;27.43
81990;BME280;71485;51.638;-0.182;2023-08-08T01:48:07;100591.37;;;27.31;27.42
81990;BME280;71485;51.638;-0.182;2023-08-08T01:50:31;100591.71;;;26.82;27.44
81990;BME280;71485;51.638;-0.182;2023-08-08T01:52:56;100594.39;;;26.80;27.44
81990;BME280;71485;51.638;-0.182;2023-08-08T01:55:21;100602.00;;;26.78;27.48
81990;BME280;71485;51.638;-0.182;2023-08-08T01:57:47;100608.11;;;26.77;27.50
81990;BME280;71485;51.638;-0.182;2023-08-08T02:00:12;100611.04;;;26.75;27.52
81990;BME280;71485;51.638;-0.182;2023-08-08T02:02:38;100613.29;;;26.98;27.57
81990;BME280;71485;51.638;-0.182;2023-08-08T02:05:05;100610.29;;;26.91;28.06
81990;BME280;71485;51.638;-0.182;2023-08-08T02:07:29;100607.25;;;26.71;28.86
81990;BME280;71485;51.638;-0.182;2023-08-08T02:09:56;100604.41;;;26.32;28.63
81990;BME280;71485;51.638;-0.182;2023-08-08T02:12:20;100600.48;;;26.75;28.42
81990;BME280;71485;51.638;-0.182;2023-08-08T02:14:46;100599.93;;;26.82;28.50
81990;BME280;71485;51.638;-0.182;2023-08-08T02:17:11;100597.51;;;26.50;28.56
81990;BME280;71485;51.638;-0.182;2023-08-08T02:19:40;100595.83;;;26.67;28.37
81990;BME280;71485;51.638;-0.182;2023-08-08T02:22:02;100592.92;;;26.50;28.24
81990;BME280;71485;51.638;-0.182;2023-08-08T02:24:28;100588.50;;;26.79;28.40
81990;BME280;71485;51.638;-0.182;2023-08-08T02:26:55;100581.51;;;26.32;28.33
81990;BME280;71485;51.638;-0.182;2023-08-08T02:29:19;100583.88;;;26.79;28.37
81990;BME280;71485;51.638;-0.182;2023-08-08T02:31:44;100579.37;;;26.47;28.45
81990;BME280;71485;51.638;-0.182;2023-08-08T02:34:14;100572.29;;;26.38;28.55
81990;BME280;71485;51.638;-0.182;2023-08-08T02:36:36;100571.54;;;26.65;28.45
81990;BME280;71485;51.638;-0.182;2023-08-08T02:39:02;100581.06;;;26.25;28.59
81990;BME280;71485;51.638;-0.182;2023-08-08T02:41:27;100580.54;;;26.35;28.73
81990;BME280;71485;51.638;-0.182;2023-08-08T02:43:52;100581.83;;;26.37;28.73
81990;BME280;71485;51.638;-0.182;2023-08-08T02:46:18;100580.30;;;26.36;28.53
81990;BME280;71485;51.638;-0.182;2023-08-08T02:48:43;100572.07;;;26.63;28.43
81990;BME280;71485;51.638;-0.182;2023-08-08T02:51:10;100570.99;;;26.59;28.48
81990;BME280;71485;51.638;-0.182;2023-08-08T02:53:36;100567.89;;;26.62;28.48
81990;BME280;71485;51.638;-0.182;2023-08-08T02:56:00;100566.28;;;26.67;28.39
81990;BME280;71485;51.638;-0.182;2023-08-08T02:58:26;100568.30;;;26.63;28.43
81990;BME280;71485;51.638;-0.182;2023-08-08T03:00:51;100567.18;;;26.65;28.38
81990;BME280;71485;51.638;-0.182;2023-08-08T03:03:18;100567.94;;;26.79;28.29
81990;BME280;71485;51.638;-0.182;2023-08-08T03:05:44;100573.95;;;26.68;28.08
81990;BME280;71485;51.638;-0.182;2023-08-08T03:08:08;100575.97;;;26.57;28.12
81990;BME280;71485;51.638;-0.182;2023-08-08T03:10:34;100575.21;;;26.87;28.09
81990;BME280;71485;51.638;-0.182;2023-08-08T03:12:59;100575.05;;;26.51;27.97
81990;BME280;71485;51.638;-0.182;2023-08-08T03:15:24;100577.81;;;26.21;28.20
81990;BME280;71485;51.638;-0.182;2023-08-08T03:17:50;100579.71;;;26.73;28.18
81990;BME280;71485;51.638;-0.182;2023-08-08T03:20:17;100578.66;;;26.32;28.15
81990;BME280;71485;51.638;-0.182;2023-08-08T03:22:41;100578.88;;;26.97;27.98
81990;BME280;71485;51.638;-0.182;2023-08-08T03:25:07;100577.18;;;26.70;27.98
81990;BME280;71485;51.638;-0.182;2023-08-08T03:27:33;100582.29;;;26.87;27.78
81990;BME280;71485;51.638;-0.182;2023-08-08T03:29:58;100587.00;;;26.67;27.75
81990;BME280;71485;51.638;-0.182;2023-08-08T03:32:23;100594.65;;;26.70;27.71
81990;BME280;71485;51.638;-0.182;2023-08-08T03:34:49;100595.49;;;26.59;27.66
81990;BME280;71485;51.638;-0.182;2023-08-08T03:37:15;100595.79;;;26.92;27.62
81990;BME280;71485;51.638;-0.182;2023-08-08T03:39:41;100591.36;;;26.44;27.80
81990;BME280;71485;51.638;-0.182;2023-08-08T03:42:06;100592.57;;;26.88;27.62
81990;BME280;71485;51.638;-0.182;2023-08-08T03:44:31;100584.55;;;26.71;27.51
81990;BME280;71485;51.638;-0.182;2023-08-08T03:46:57;100580.40;;;27.24;27.47
81990;BME280;71485;51.638;-0.182;2023-08-08T03:49:24;100572.51;;;26.77;27.44
81990;BME280;71485;51.638;-0.182;2023-08-08T03:51:48;100568.45;;;26.79;27.40
81990;BME280;71485;51.638;-0.182;2023-08-08T03:54:13;100562.35;;;26.82;27.38
81990;BME280;71485;51.638;-0.182;2023-08-08T03:56:39;100572.02;;;27.08;27.25
81990;BME280;71485;51.638;-0.182;2023-08-08T03:59:04;100574.92;;;26.82;27.22
81990;BME280;71485;51.638;-0.182;2023-08-08T04:01:30;100564.82;;;27.08;27.21
81990;BME280;71485;51.638;-0.182;2023-08-08T04:03:55;100566.02;;;26.85;27.17
81990;BME280;71485;51.638;-0.182;2023-08-08T04:06:22;100571.72;;;27.07;27.28
81990;BME280;71485;51.638;-0.182;2023-08-08T04:08:46;100577.38;;;27.02;27.30
81990;BME280;71485;51.638;-0.182;2023-08-08T04:11:13;100580.40;;;27.25;27.30
81990;BME280;71485;51.638;-0.182;2023-08-08T04:13:38;100579.24;;;27.00;27.33
81990;BME280;71485;51.638;-0.182;2023-08-08T04:16:03;100580.69;;;26.75;27.33
81990;BME280;71485;51.638;-0.182;2023-08-08T04:18:29;100585.19;;;26.74;27.30
81990;BME280;71485;51.638;-0.182;2023-08-08T04:20:55;100587.46;;;26.73;27.30
81990;BME280;71485;51.638;-0.182;2023-08-08T04:23:20;100592.67;;;26.72;27.32
81990;BME280;71485;51.638;-0.182;2023-08-08T04:25:46;100594.79;;;26.96;27.32
81990;BME280;71485;51.638;-0.182;2023-08-08T04:28:11;100590.13;;;27.18;27.29
81990;BME280;71485;51.638;-0.182;2023-08-08T04:30:36;100586.75;;;26.94;27.34
81990;BME280;71485;51.638;-0.182;2023-08-08T04:33:02;100582.31;;;26.70;27.35
81990;BME280;71485;51.638;-0.182;2023-08-08T04:35:28;100571.58;;;26.93;27.32
81990;BME280;71485;51.638;-0.182;2023-08-08T04:37:54;100566.79;;;26.68;27.32
81990;BME280;71485;51.638;-0.182;2023-08-08T04:40:20;100560.12;;;26.69;27.31
81990;BME280;71485;51.638;-0.182;2023-08-08T04:42:46;100550.25;;;26.68;27.29
81990;BME280;71485;51.638;-0.182;2023-08-08T04:45:10;100557.26;;;26.67;27.30
81990;BME280;71485;51.638;-0.182;2023-08-08T04:47:35;100558.02;;;27.14;27.27
81990;BME280;71485;51.638;-0.182;2023-08-08T04:50:02;100561.10;;;26.89;27.32
81990;BME280;71485;51.638;-0.182;2023-08-08T04:52:27;100566.83;;;26.64;27.30
81990;BME280;71485;51.638;-0.182;2023-08-08T04:54:53;100569.71;;;26.87;27.24
81990;BME280;71485;51.638;-0.182;2023-08-08T04:57:19;100572.59;;;26.85;27.31
81990;BME280;71485;51.638;-0.182;2023-08-08T04:59:43;100567.41;;;26.60;27.32
81990;BME280;71485;51.638;-0.182;2023-08-08T05:02:10;100560.98;;;26.84;27.30
81990;BME280;71485;51.638;-0.182;2023-08-08T05:04:36;100562.03;;;26.83;27.25
81990;BME280;71485;51.638;-0.182;2023-08-08T05:07:00;100565.39;;;27.07;27.25
81990;BME280;71485;51.638;-0.182;2023-08-08T05:09:25;100560.46;;;26.82;27.27
81990;BME280;71485;51.638;-0.182;2023-08-08T05:11:52;100558.16;;;26.57;27.27
81990;BME280;71485;51.638;-0.182;2023-08-08T05:14:17;100556.30;;;26.82;27.26
81990;BME280;71485;51.638;-0.182;2023-08-08T05:16:42;100556.92;;;26.55;27.27
81990;BME280;71485;51.638;-0.182;2023-08-08T05:19:09;100556.55;;;26.78;27.27
81990;BME280;71485;51.638;-0.182;2023-08-08T05:21:34;100553.16;;;27.00;27.27
81990;BME280;71485;51.638;-0.182;2023-08-08T05:23:59;100550.95;;;26.51;27.26
81990;BME280;71485;51.638;-0.182;2023-08-08T05:26:26;100552.22;;;26.50;27.29
81990;BME280;71485;51.638;-0.182;2023-08-08T05:28:50;100554.11;;;26.97;27.31
81990;BME280;71485;51.638;-0.182;2023-08-08T05:31:16;100560.85;;;26.97;27.34
81990;BME280;71485;51.638;-0.182;2023-08-08T05:33:41;100558.83;;;26.48;27.37
81990;BME280;71485;51.638;-0.182;2023-08-08T05:36:08;100554.46;;;26.70;27.41
81990;BME280;71485;51.638;-0.182;2023-08-08T05:38:34;100547.98;;;26.45;27.44
81990;BME280;71485;51.638;-0.182;2023-08-08T05:40:59;100548.74;;;26.69;27.46
81990;BME280;71485;51.638;-0.182;2023-08-08T05:43:23;100550.39;;;26.92;27.46
81990;BME280;71485;51.638;-0.182;2023-08-08T05:45:49;100547.01;;;26.66;27.46
81990;BME280;71485;51.638;-0.182;2023-08-08T05:48:16;100549.97;;;26.64;27.45
81990;BME280;71485;51.638;-0.182;2023-08-08T05:50:41;100541.94;;;26.40;27.45
81990;BME280;71485;51.638;-0.182;2023-08-08T05:53:06;100546.78;;;26.38;27.44
81990;BME280;71485;51.638;-0.182;2023-08-08T05:55:31;100543.32;;;26.86;27.44
81990;BME280;71485;51.638;-0.182;2023-08-08T05:57:57;100543.26;;;26.62;27.42
81990;BME280;71485;51.638;-0.182;2023-08-08T06:00:23;100540.29;;;26.89;27.37
81990;BME280;71485;51.638;-0.182;2023-08-08T06:02:50;100540.81;;;26.68;27.34
81990;BME280;71485;51.638;-0.182;2023-08-08T06:05:16;100540.65;;;26.63;27.36
81990;BME280;71485;51.638;-0.182;2023-08-08T06:07:39;100533.90;;;26.84;27.41
81990;BME280;71485;51.638;-0.182;2023-08-08T06:10:05;100536.61;;;26.57;27.47
81990;BME280;71485;51.638;-0.182;2023-08-08T06:12:30;100545.36;;;26.57;27.50
81990;BME280;71485;51.638;-0.182;2023-08-08T06:14:56;100547.50;;;26.32;27.51
81990;BME280;71485;51.638;-0.182;2023-08-08T06:17:22;100551.18;;;26.55;27.57
81990;BME280;71485;51.638;-0.182;2023-08-08T06:19:49;100555.48;;;26.30;27.57
81990;BME280;71485;51.638;-0.182;2023-08-08T06:22:13;100554.49;;;26.77;27.55
81990;BME280;71485;51.638;-0.182;2023-08-08T06:24:38;100557.69;;;26.54;27.53
81990;BME280;71485;51.638;-0.182;2023-08-08T06:27:04;100552.79;;;26.76;27.52
81990;BME280;71485;51.638;-0.182;2023-08-08T06:29:29;100550.85;;;26.51;27.54
81990;BME280;71485;51.638;-0.182;2023-08-08T06:31:55;100551.07;;;26.49;27.64
81990;BME280;71485;51.638;-0.182;2023-08-08T06:34:21;100560.63;;;26.72;27.85
81990;BME280;71485;51.638;-0.182;2023-08-08T06:36:46;100559.30;;;26.72;28.03
81990;BME280;71485;51.638;-0.182;2023-08-08T06:39:12;100543.34;;;26.47;28.09
81990;BME280;71485;51.638;-0.182;2023-08-08T06:41:41;100550.90;;;26.70;28.05
81990;BME280;71485;51.638;-0.182;2023-08-08T06:44:03;100553.14;;;26.69;28.03
81990;BME280;71485;51.638;-0.182;2023-08-08T06:46:28;100560.25;;;26.67;28.01
81990;BME280;71485;51.638;-0.182;2023-08-08T06:48:55;100556.91;;;26.42;28.00
81990;BME280;71485;51.638;-0.182;2023-08-08T06:51:21;100552.95;;;26.66;27.99
81990;BME280;71485;51.638;-0.182;2023-08-08T06:53:45;100554.18;;;26.17;27.99
81990;BME280;71485;51.638;-0.182;2023-08-08T06:56:11;100554.05;;;26.64;27.99
81990;BME280;71485;51.638;-0.182;2023-08-08T06:58:36;100548.13;;;26.64;27.97
81990;BME280;71485;51.638;-0.182;2023-08-08T07:01:03;100547.80;;;26.64;27.97
81990;BME280;71485;51.638;-0.182;2023-08-08T07:03:27;100543.50;;;26.40;27.94
81990;BME280;71485;51.638;-0.182;2023-08-08T07:05:53;100545.21;;;26.62;27.95
81990;BME280;71485;51.638;-0.182;2023-08-08T07:08:19;100541.75;;;26.37;27.95
81990;BME280;71485;51.638;-0.182;2023-08-08T07:10:44;100544.24;;;26.60;27.96
81990;BME280;71485;51.638;-0.182;2023-08-08T07:13:10;100543.71;;;26.60;27.96
81990;BME280;71485;51.638;-0.182;2023-08-08T07:15:35;100545.52;;;26.35;27.96
81990;BME280;71485;51.638;-0.182;2023-08-08T07:18:01;100548.45;;;26.11;27.96
81990;BME280;71485;51.638;-0.182;2023-08-08T07:20:28;100547.56;;;26.56;28.00
81990;BME280;71485;51.638;-0.182;2023-08-08T07:22:53;100550.54;;;26.27;28.28
81990;BME280;71485;51.638;-0.182;2023-08-08T07:25:23;100555.21;;;26.56;28.32
81990;BME280;71485;51.638;-0.182;2023-08-08T07:27:43;100552.80;;;26.34;28.38
81990;BME280;71485;51.638;-0.182;2023-08-08T07:30:12;100550.41;;;26.58;28.50
81990;BME280;71485;51.638;-0.182;2023-08-08T07:32:35;100549.65;;;26.59;28.40
81990;BME280;71485;51.638;-0.182;2023-08-08T07:35:01;100545.93;;;26.36;28.54
81990;BME280;71485;51.638;-0.182;2023-08-08T07:37:26;100551.07;;;26.35;28.58
81990;BME280;71485;51.638;-0.182;2023-08-08T07:39:52;100543.55;;;26.62;28.44
81990;BME280;71485;51.638;-0.182;2023-08-08T07:42:16;100536.80;;;26.62;28.69
81990;BME280;71485;51.638;-0.182;2023-08-08T07:44:42;100536.07;;;26.65;28.77
81990;BME280;71485;51.638;-0.182;2023-08-08T07:47:08;100533.99;;;26.63;29.12
81990;BME280;71485;51.638;-0.182;2023-08-08T07:49:37;100537.52;;;26.37;28.95
81990;BME280;71485;51.638;-0.182;2023-08-08T07:52:00;100536.53;;;26.64;28.62
81990;BME280;71485;51.638;-0.182;2023-08-08T07:54:25;100538.70;;;26.39;28.66
81990;BME280;71485;51.638;-0.182;2023-08-08T07:56:51;100542.95;;;26.64;28.52
81990;BME280;71485;51.638;-0.182;2023-08-08T07:59:15;100544.53;;;26.63;28.49
81990;BME280;71485;51.638;-0.182;2023-08-08T08:01:42;100543.34;;;26.60;28.54
81990;BME280;71485;51.638;-0.182;2023-08-08T08:04:07;100539.10;;;26.36;28.51
81990;BME280;71485;51.638;-0.182;2023-08-08T08:06:32;100538.89;;;26.61;28.45
81990;BME280;71485;51.638;-0.182;2023-08-08T08:08:58;100532.94;;;26.59;28.43
81990;BME280;71485;51.638;-0.182;2023-08-08T08:11:23;100530.37;;;26.60;28.44
81990;BME280;71485;51.638;-0.182;2023-08-08T08:13:49;100529.88;;;26.60;28.83
81990;BME280;71485;51.638;-0.182;2023-08-08T08:16:15;100534.64;;;26.40;29.16
81990;BME280;71485;51.638;-0.182;2023-08-08T08:18:40;100532.84;;;26.65;29.44
81990;BME280;71485;51.638;-0.182;2023-08-08T08:21:06;100533.40;;;26.17;29.99
81990;BME280;71485;51.638;-0.182;2023-08-08T08:23:32;100535.41;;;26.67;30.37
81990;BME280;71485;51.638;-0.182;2023-08-08T08:25:58;100531.59;;;26.64;30.47
81990;BME280;71485;51.638;-0.182;2023-08-08T08:28:22;100528.02;;;26.65;30.17
81990;BME280;71485;51.638;-0.182;2023-08-08T08:30:48;100528.21;;;26.63;30.24
81990;BME280;71485;51.638;-0.182;2023-08-08T08:33:14;100529.08;;;26.64;30.38
81990;BME280;71485;51.638;-0.182;2023-08-08T08:35:39;100534.12;;;26.67;30.15
81990;BME280;71485;51.638;-0.182;2023-08-08T08:38:05;100531.17;;;26.45;30.09
81990;BME280;71485;51.638;-0.182;2023-08-08T08:40:35;100524.48;;;26.19;29.89
81990;BME280;71485;51.638;-0.182;2023-08-08T08:42:56;100523.69;;;26.40;29.99
81990;BME280;71485;51.638;-0.182;2023-08-08T08:45:22;100522.20;;;26.42;30.00
81990;BME280;71485;51.638;-0.182;2023-08-08T08:47:47;100528.07;;;26.68;30.43
81990;BME280;71485;51.638;-0.182;2023-08-08T08:50:15;100526.40;;;26.70;31.03
81990;BME280;71485;51.638;-0.182;2023-08-08T08:52:38;100524.31;;;26.48;31.17
81990;BME280;71485;51.638;-0.182;2023-08-08T08:55:05;100527.26;;;26.71;31.04
81990;BME280;71485;51.638;-0.182;2023-08-08T08:57:30;100530.32;;;26.46;30.67
81990;BME280;71485;51.638;-0.182;2023-08-08T08:59:56;100523.26;;;26.46;30.35
81990;BME280;71485;51.638;-0.182;2023-08-08T09:02:23;100527.94;;;26.72;30.15
81990;BME280;71485;51.638;-0.182;2023-08-08T09:04:46;100532.29;;;26.69;30.27
81990;BME280;71485;51.638;-0.182;2023-08-08T09:07:12;100530.46;;;26.75;30.40
81990;BME280;71485;51.638;-0.182;2023-08-08T09:09:37;100532.60;;;26.76;30.29
81990;BME280;71485;51.638;-0.182;2023-08-08T09:12:04;100534.53;;;26.98;30.17
81990;BME280;71485;51.638;-0.182;2023-08-08T09:14:28;100532.16;;;26.50;30.08
81990;BME280;71485;51.638;-0.182;2023-08-08T09:16:54;100531.06;;;26.26;30.19
81990;BME280;71485;51.638;-0.182;2023-08-08T09:19:20;100529.83;;;26.81;30.11
81990;BME280;71485;51.638;-0.182;2023-08-08T09:21:45;100530.76;;;26.86;29.97
81990;BME280;71485;51.638;-0.182;2023-08-08T09:24:12;100524.88;;;26.62;29.97
81990;BME280;71485;51.638;-0.182;2023-08-08T09:26:40;100525.56;;;26.88;30.03
81990;BME280;71485;51.638;-0.182;2023-08-08T09:29:03;100523.36;;;26.91;30.09
81990;BME280;71485;51.638;-0.182;2023-08-08T09:31:27;100524.20;;;26.91;30.14
81990;BME280;71485;51.638;-0.182;2023-08-08T09:33:54;100530.98;;;26.89;30.08
81990;BME280;71485;51.638;-0.182;2023-08-08T09:36:18;100525.51;;;26.44;30.18
81990;BME280;71485;51.638;-0.182;2023-08-08T09:38:44;100516.97;;;26.69;30.05
81990;BME280;71485;51.638;-0.182;2023-08-08T09:41:10;100519.78;;;26.46;30.10
81990;BME280;71485;51.638;-0.182;2023-08-08T09:43:35;100524.18;;;27.10;29.79
81990;BME280;71485;51.638;-0.182;2023-08-08T09:46:01;100526.09;;;27.13;29.46
81990;BME280;71485;51.638;-0.182;2023-08-08T09:48:30;100523.13;;;26.68;29.43
81990;BME280;71485;51.638;-0.182;2023-08-08T09:50:53;100515.46;;;26.72;29.42
81990;BME280;71485;51.638;-0.182;2023-08-08T09:53:18;100513.15;;;26.93;29.56
81990;BME280;71485;51.638;-0.182;2023-08-08T09:55:43;100513.85;;;26.76;29.19
81990;BME280;71485;51.638;-0.182;2023-08-08T09:58:09;100515.62;;;26.97;29.07
81990;BME280;71485;51.638;-0.182;2023-08-08T10:00:34;100510.85;;;27.00;29.02
81990;BME280;71485;51.638;-0.182;2023-08-08T10:02:59;100512.32;;;27.01;28.94
81990;BME280;71485;51.638;-0.182;2023-08-08T10:05:26;100512.37;;;26.76;28.91
81990;BME280;71485;51.638;-0.182;2023-08-08T10:07:53;100508.73;;;26.78;28.88
81990;BME280;71485;51.638;-0.182;2023-08-08T10:10:17;100507.08;;;26.79;28.86
81990;BME280;71485;51.638;-0.182;2023-08-08T10:12:42;100508.86;;;27.26;28.83
81990;BME280;71485;51.638;-0.182;2023-08-08T10:15:09;100504.61;;;27.03;28.81
81990;BME280;71485;51.638;-0.182;2023-08-08T10:17:36;100500.84;;;26.79;28.78
81990;BME280;71485;51.638;-0.182;2023-08-08T10:19:58;100500.71;;;27.27;28.77
81990;BME280;71485;51.638;-0.182;2023-08-08T10:22:24;100500.58;;;27.02;28.77
81990;BME280;71485;51.638;-0.182;2023-08-08T10:24:52;100493.39;;;27.24;28.75
81990;BME280;71485;51.638;-0.182;2023-08-08T10:27:27;100489.55;;;26.78;28.73
81990;BME280;71485;51.638;-0.182;2023-08-08T10:29:40;100486.22;;;26.77;28.74
81990;BME280;71485;51.638;-0.182;2023-08-08T10:32:07;100487.32;;;27.24;28.71
81990;BME280;71485;51.638;-0.182;2023-08-08T10:34:38;100493.24;;;27.02;28.69
81990;BME280;71485;51.638;-0.182;2023-08-08T10:36:57;100492.75;;;26.78;28.65
81990;BME280;71485;51.638;-0.182;2023-08-08T10:39:24;100493.01;;;27.27;28.68
81990;BME280;71485;51.638;-0.182;2023-08-08T10:41:50;100492.67;;;27.04;28.65
81990;BME280;71485;51.638;-0.182;2023-08-08T10:44:20;100485.51;;;26.82;28.63
81990;BME280;71485;51.638;-0.182;2023-08-08T10:46:41;100485.36;;;27.04;28.65
81990;BME280;71485;51.638;-0.182;2023-08-08T10:49:06;100482.52;;;26.81;28.73
81990;BME280;71485;51.638;-0.182;2023-08-08T10:51:35;100483.04;;;27.13;28.79
81990;BME280;71485;51.638;-0.182;2023-08-08T10:53:56;100482.96;;;27.07;28.90
81990;BME280;71485;51.638;-0.182;2023-08-08T10:56:22;100478.99;;;26.82;28.84
81990;BME280;71485;51.638;-0.182;2023-08-08T10:58:48;100476.52;;;27.27;28.88
81990;BME280;71485;51.638;-0.182;2023-08-08T11:01:13;100478.15;;;27.36;28.77
81990;BME280;71485;51.638;-0.182;2023-08-08T11:03:40;100477.56;;;26.89;28.84
81990;BME280;71485;51.638;-0.182;2023-08-08T11:06:05;100470.31;;;27.36;28.80
81990;BME280;71485;51.638;-0.182;2023-08-08T11:08:29;100464.98;;;26.91;28.85
81990;BME280;71485;51.638;-0.182;2023-08-08T11:10:55;100465.42;;;27.42;28.74
81990;BME280;71485;51.638;-0.182;2023-08-08T11:13:20;100462.79;;;27.18;28.79
81990;BME280;71485;51.638;-0.182;2023-08-08T11:15:46;100464.74;;;27.17;28.77
81990;BME280;71485;51.638;-0.182;2023-08-08T11:18:11;100467.06;;;27.13;28.83
81990;BME280;71485;51.638;-0.182;2023-08-08T11:20:37;100471.44;;;27.40;28.82
81990;BME280;71485;51.638;-0.182;2023-08-08T11:23:03;100470.02;;;26.98;28.77
81990;BME280;71485;51.638;-0.182;2023-08-08T11:25:30;100467.28;;;27.22;28.75
81990;BME280;71485;51.638;-0.182;2023-08-08T11:27:54;100462.34;;;27.02;28.71
81990;BME280;71485;51.638;-0.182;2023-08-08T11:30:20;100452.65;;;27.19;28.76
81990;BME280;71485;51.638;-0.182;2023-08-08T11:32:45;100452.03;;;26.99;28.72
81990;BME280;71485;51.638;-0.182;2023-08-08T11:35:10;100451.44;;;27.00;28.70
81990;BME280;71485;51.638;-0.182;2023-08-08T11:37:37;100455.01;;;26.99;28.70
81990;BME280;71485;51.638;-0.182;2023-08-08T11:40:03;100457.08;;;27.24;28.69
81990;BME280;71485;51.638;-0.182;2023-08-08T11:42:27;100456.52;;;27.03;28.68
81990;BME280;71485;51.638;-0.182;2023-08-08T11:44:53;100452.04;;;27.03;28.66
81990;BME280;71485;51.638;-0.182;2023-08-08T11:47:24;100448.71;;;27.03;28.66
81990;BME280;71485;51.638;-0.182;2023-08-08T11:49:46;100444.73;;;27.03;28.67
81990;BME280;71485;51.638;-0.182;2023-08-08T11:52:12;100443.15;;;27.03;28.66
81990;BME280;71485;51.638;-0.182;2023-08-08T11:54:38;100437.68;;;27.03;28.67
81990;BME280;71485;51.638;-0.182;2023-08-08T11:57:01;100437.28;;;27.27;28.70
81990;BME280;71485;51.638;-0.182;2023-08-08T11:59:26;100432.01;;;27.03;28.69
81990;BME280;71485;51.638;-0.182;2023-08-08T12:01:53;100435.15;;;27.28;28.67
81990;BME280;71485;51.638;-0.182;2023-08-08T12:04:20;100437.58;;;27.07;28.65
81990;BME280;71485;51.638;-0.182;2023-08-08T12:06:43;100437.30;;;27.09;28.63
81990;BME280;71485;51.638;-0.182;2023-08-08T12:09:11;100433.70;;;27.08;28.66
81990;BME280;71485;51.638;-0.182;2023-08-08T12:11:35;100433.47;;;27.31;28.67
81990;BME280;71485;51.638;-0.182;2023-08-08T12:14:00;100430.43;;;27.09;28.67
81990;BME280;71485;51.638;-0.182;2023-08-08T12:16:27;100424.94;;;27.11;28.67
81990;BME280;71485;51.638;-0.182;2023-08-08T12:18:50;100418.58;;;27.11;28.68
81990;BME280;71485;51.638;-0.182;2023-08-08T12:21:16;100421.93;;;27.13;28.67
81990;BME280;71485;51.638;-0.182;2023-08-08T12:23:41;100416.06;;;27.35;28.71
81990;BME280;71485;51.638;-0.182;2023-08-08T12:26:07;100412.41;;;27.10;28.71
81990;BME280;71485;51.638;-0.182;2023-08-08T12:28:33;100410.97;;;27.11;28.73
81990;BME280;71485;51.638;-0.182;2023-08-08T12:30:58;100412.46;;;27.37;28.71